Time;durP1;ratioP1;P1;durP2;ratioP2;P2;SDS_P1;SDS_P2;PMS_P1;PMS_P2;Temp;Humidity;BMP_temperature;BMP_pressure;BME280_temperature;BME280_humidity;BME280_pressure;Samples;Min_cycle;Max_cycle;Signal;HPM_P1;HPM_P2
2023/01/11 00:00:41;;;;;;;10.53;2.90;;;;;;;19.49;54.06;100461.03;5089573;28;20193;-58
2023/01/11 00:03:06;;;;;;;13.00;2.50;;;;;;;19.50;54.39;100464.72;5083740;28;20844;-58
2023/01/11 00:05:39;;;;;;;7.97;3.33;;;;;;;19.45;54.70;100457.28;5077295;28;20270;-58
2023/01/11 00:08:05;;;;;;;14.27;2.80;;;;;;;19.51;54.78;100455.75;5092904;28;20299;-58
2023/01/11 00:10:32;;;;;;;7.43;2.40;;;;;;;19.56;54.86;100452.56;5092793;28;20507;-59
2023/01/11 00:12:57;;;;;;;12.87;2.93;;;;;;;19.55;54.97;100450.91;5093390;28;20190;-58
2023/01/11 00:15:22;;;;;;;9.57;2.93;;;;;;;19.57;55.26;100451.34;5103721;28;20429;-58
2023/01/11 00:17:48;;;;;;;8.03;3.10;;;;;;;19.56;55.74;100457.47;5106573;28;20201;-58
2023/01/11 00:20:14;;;;;;;12.50;2.93;;;;;;;19.54;55.59;100449.25;5101932;28;20178;-58
2023/01/11 00:22:39;;;;;;;12.97;2.70;;;;;;;19.51;55.83;100452.06;5084554;28;20185;-58
2023/01/11 00:25:05;;;;;;;10.47;2.70;;;;;;;19.55;56.04;100455.78;5105992;28;20189;-58
2023/01/11 00:27:30;;;;;;;14.43;2.83;;;;;;;19.55;56.18;100450.06;5092503;28;20190;-58
2023/01/11 00:29:56;;;;;;;8.60;2.30;;;;;;;19.53;56.31;100446.78;5094600;28;20198;-58
2023/01/11 00:32:21;;;;;;;13.30;2.63;;;;;;;19.52;56.47;100443.06;5092838;28;20613;-58
2023/01/11 00:34:46;;;;;;;8.13;2.80;;;;;;;19.55;56.22;100430.03;5093730;28;20806;-59
2023/01/11 00:37:12;;;;;;;11.43;2.10;;;;;;;19.50;56.23;100430.34;5112434;28;20204;-59
2023/01/11 00:39:37;;;;;;;10.43;2.40;;;;;;;19.51;55.90;100427.09;5098830;28;20201;-59
2023/01/11 00:50:14;;;;;;;12.70;2.90;;;;;;;19.24;55.03;100398.84;5096768;28;20443;-58
2023/01/11 00:52:40;;;;;;;13.33;2.90;;;;;;;19.21;54.75;100394.66;5097707;28;20421;-59
2023/01/11 00:55:05;;;;;;;15.83;2.47;;;;;;;19.15;54.38;100384.75;5093022;28;20183;-59
2023/01/11 00:57:31;;;;;;;12.27;4.10;;;;;;;19.09;53.63;100379.75;5094353;28;20309;-58
2023/01/11 00:59:56;;;;;;;8.80;2.97;;;;;;;19.13;51.81;100387.19;5092976;28;20170;-58
2023/01/11 01:02:22;;;;;;;13.50;2.07;;;;;;;19.10;52.53;100382.22;5095883;28;20186;-58
2023/01/11 01:04:47;;;;;;;8.53;2.23;;;;;;;19.13;52.70;100374.91;5093052;28;20210;-58
2023/01/11 01:07:13;;;;;;;6.50;2.33;;;;;;;19.15;52.65;100381.91;5092003;28;20231;-58
2023/01/11 01:09:38;;;;;;;12.00;2.20;;;;;;;19.15;52.85;100372.47;5091471;28;20265;-58
2023/01/11 01:12:05;;;;;;;4.70;2.17;;;;;;;19.14;53.09;100379.41;5091943;28;20192;-59
2023/01/11 01:14:32;;;;;;;12.00;2.40;;;;;;;19.13;53.46;100370.03;5090492;28;20278;-58
2023/01/11 01:17:06;;;;;;;11.43;2.23;;;;;;;19.20;53.29;100375.84;5079939;28;20795;-58
2023/01/11 01:19:32;;;;;;;6.80;2.07;;;;;;;19.19;53.12;100374.22;5072454;28;20425;-58
2023/01/11 01:21:58;;;;;;;11.80;2.40;;;;;;;19.21;53.40;100370.97;5054531;28;20812;-57
2023/01/11 01:24:23;;;;;;;8.03;2.27;;;;;;;19.21;53.74;100360.31;5088924;28;20462;-59
2023/01/11 01:26:49;;;;;;;4.83;1.70;;;;;;;19.24;53.80;100356.75;5092129;28;20182;-58
2023/01/11 01:29:14;;;;;;;9.30;2.33;;;;;;;19.23;53.82;100355.09;5094209;28;20231;-58
2023/01/11 01:31:41;;;;;;;7.27;1.97;;;;;;;19.23;53.62;100357.97;5092425;28;20179;-58
2023/01/11 01:34:07;;;;;;;10.23;1.77;;;;;;;19.21;54.07;100360.31;5091943;28;20186;-58
2023/01/11 01:36:33;;;;;;;8.03;1.70;;;;;;;19.25;54.05;100361.25;5095127;28;21008;-58
2023/01/11 01:38:59;;;;;;;6.13;1.70;;;;;;;19.24;54.09;100359.59;5092720;28;20420;-59
2023/01/11 01:41:25;;;;;;;8.33;2.10;;;;;;;19.20;54.19;100370.13;5100000;28;20260;-58
2023/01/11 01:43:52;;;;;;;4.87;1.60;;;;;;;19.21;54.61;100368.09;5113405;28;20433;-58
2023/01/11 01:46:18;;;;;;;8.73;1.90;;;;;;;19.19;54.43;100371.34;5111073;28;20286;-58
2023/01/11 01:48:47;;;;;;;8.53;2.00;;;;;;;19.20;54.30;100364.41;5092500;28;20423;-58
2023/01/11 01:51:15;;;;;;;7.93;2.30;;;;;;;19.19;54.61;100370.50;5095183;28;20419;-58
2023/01/11 01:53:42;;;;;;;9.10;2.20;;;;;;;19.20;54.62;100370.13;5103212;28;20416;-59
2023/01/11 01:56:11;;;;;;;14.30;2.27;;;;;;;19.22;54.80;100379.19;5094587;28;20785;-58
2023/01/11 01:58:39;;;;;;;10.20;2.83;;;;;;;19.15;54.91;100381.91;5074353;28;20880;-58
2023/01/11 02:03:48;;;;;;;7.00;2.27;;;;;;;19.19;55.10;100384.81;5065843;28;20455;-63
2023/01/11 02:06:14;;;;;;;5.80;2.10;;;;;;;19.16;54.97;100391.31;5073965;28;20468;-63
2023/01/11 02:08:40;;;;;;;7.70;2.40;;;;;;;19.16;55.42;100382.75;5074257;28;20228;-63
2023/01/11 02:11:28;;;;;;;8.83;2.30;;;;;;;19.15;55.42;100384.75;5076418;28;20182;-63
2023/01/11 02:13:51;;;;;;;5.23;1.73;;;;;;;19.11;55.21;100383.88;5112604;28;20728;-63
2023/01/11 02:16:16;;;;;;;4.03;1.63;;;;;;;19.09;55.67;100382.59;5110446;28;20404;-64
2023/01/11 02:18:41;;;;;;;4.70;1.70;;;;;;;19.11;55.24;100381.00;5075932;28;20176;-63
2023/01/11 02:21:41;;;;;;;6.80;1.57;;;;;;;19.10;55.41;100370.78;5082072;28;20185;-63
2023/01/11 02:24:27;;;;;;;3.90;1.93;;;;;;;19.08;55.57;100367.47;5082978;28;20181;-63
2023/01/11 02:27:22;;;;;;;9.60;2.37;;;;;;;19.04;55.68;100357.16;5084464;28;20521;-63
2023/01/11 02:29:47;;;;;;;9.37;2.17;;;;;;;19.08;55.59;100367.47;5087266;28;20426;-62
2023/01/11 02:32:17;;;;;;;7.20;1.97;;;;;;;19.08;55.61;100361.75;5092121;28;20768;-63
2023/01/11 02:35:06;;;;;;;7.13;2.00;;;;;;;19.04;55.78;100349.44;5075022;28;20526;-62
2023/01/11 02:37:43;;;;;;;4.83;1.73;;;;;;;19.03;55.94;100347.78;5054482;28;20441;-63
2023/01/11 02:40:20;;;;;;;8.40;2.33;;;;;;;18.99;56.07;100332.59;5071538;28;20451;-62
2023/01/11 02:45:36;;;;;;;5.13;1.50;;;;;;;19.05;55.98;100335.94;5006713;28;20462;-62
2023/01/11 02:48:30;;;;;;;7.47;1.70;;;;;;;19.05;55.89;100328.19;5051595;28;20446;-63
2023/01/11 02:51:02;;;;;;;8.20;1.80;;;;;;;19.01;56.00;100315.84;5053421;28;20501;-63
2023/01/11 02:53:58;;;;;;;7.37;2.10;;;;;;;19.04;56.14;100317.94;4970257;28;20434;-63
2023/01/11 02:56:27;;;;;;;6.23;1.73;;;;;;;19.02;55.99;100323.22;5038367;28;20456;-63
2023/01/11 02:58:54;;;;;;;7.23;1.47;;;;;;;19.06;56.07;100311.84;5036264;28;20433;-63
2023/01/11 03:01:21;;;;;;;3.57;1.20;;;;;;;19.05;55.97;100295.88;5036447;28;20470;-63
2023/01/11 03:03:47;;;;;;;8.03;1.80;;;;;;;19.00;56.17;100305.63;4980210;28;20417;-63
2023/01/11 03:06:16;;;;;;;5.07;1.77;;;;;;;19.02;56.10;100286.00;4989113;28;20425;-63
2023/01/11 03:09:00;;;;;;;6.03;1.80;;;;;;;19.02;56.08;100302.38;4973275;28;20441;-63
2023/01/11 03:14:44;;;;;;;3.90;1.60;;;;;;;18.99;56.18;100295.38;4985113;28;20517;-63
2023/01/11 03:17:30;;;;;;;12.67;1.80;;;;;;;18.99;56.24;100286.81;4987943;28;20548;-63
2023/01/11 03:20:20;;;;;;;5.80;1.70;;;;;;;19.04;56.44;100305.66;5055520;28;21001;-63
2023/01/11 03:22:53;;;;;;;4.00;1.90;;;;;;;19.01;56.07;100295.00;4986807;28;20919;-63
2023/01/11 03:25:29;;;;;;;4.00;1.70;;;;;;;18.98;56.30;100313.75;4969810;28;20464;-63
2023/01/11 03:27:59;;;;;;;6.33;1.80;;;;;;;19.00;56.67;100307.63;4985932;28;20420;-63
2023/01/11 03:30:30;;;;;;;6.63;1.60;;;;;;;19.02;56.51;100300.31;4971642;28;20462;-63
2023/01/11 03:33:05;;;;;;;5.53;1.80;;;;;;;18.96;56.54;100304.72;5052260;28;20447;-63
2023/01/11 03:35:41;;;;;;;3.90;1.30;;;;;;;19.01;56.25;100312.19;4988997;28;20435;-63
2023/01/11 03:38:12;;;;;;;6.67;1.90;;;;;;;18.98;56.40;100299.47;4981013;28;20558;-63
2023/01/11 03:40:43;;;;;;;8.03;1.90;;;;;;;18.96;56.52;100301.06;4969679;28;20418;-63
2023/01/11 03:43:09;;;;;;;5.70;1.40;;;;;;;18.98;56.36;100298.63;5051439;28;20775;-63
2023/01/11 03:45:56;;;;;;;4.20;1.30;;;;;;;18.98;56.34;100298.63;5055430;28;20793;-63
2023/01/11 03:48:47;;;;;;;7.17;1.70;;;;;;;18.95;56.64;100305.94;4991100;28;20792;-63
2023/01/11 03:51:15;;;;;;;6.50;1.47;;;;;;;18.96;57.08;100301.06;4990840;28;20565;-62
2023/01/11 03:53:40;;;;;;;11.00;1.93;;;;;;;18.96;56.58;100298.19;5063936;28;20520;-64
2023/01/11 03:56:08;;;;;;;7.80;1.67;;;;;;;18.96;56.86;100301.88;5061299;28;20396;-63
2023/01/11 03:58:34;;;;;;;5.60;1.83;;;;;;;18.92;56.60;100303.84;5059647;28;20178;-63
2023/01/11 04:00:59;;;;;;;5.10;1.80;;;;;;;18.94;56.42;100286.28;4991122;28;20943;-63
2023/01/11 04:03:27;;;;;;;5.67;1.43;;;;;;;18.94;56.48;100294.88;5075440;28;20186;-63
2023/01/11 04:05:52;;;;;;;7.13;1.90;;;;;;;18.95;56.67;100288.78;5028231;28;20209;-62
2023/01/11 04:08:18;;;;;;;4.90;1.30;;;;;;;18.95;56.70;100282.22;5076386;28;20431;-63
2023/01/11 04:10:43;;;;;;;5.70;1.63;;;;;;;18.97;56.62;100274.09;4992837;28;20181;-63
2023/01/11 04:13:09;;;;;;;7.30;1.60;;;;;;;18.95;56.74;100268.75;5011537;28;20168;-63
2023/01/11 04:15:34;;;;;;;5.97;1.60;;;;;;;18.94;56.59;100269.97;5011667;28;20185;-63
2023/01/11 04:18:04;;;;;;;6.67;1.40;;;;;;;18.94;56.98;100277.72;5011455;28;20196;-63
2023/01/11 04:20:39;;;;;;;3.47;1.40;;;;;;;18.94;56.82;100275.69;5004426;28;20205;-63
2023/01/11 04:23:05;;;;;;;6.10;1.73;;;;;;;18.94;56.71;100269.97;4995746;28;20508;-63
2023/01/11 04:25:30;;;;;;;4.27;1.67;;;;;;;18.98;56.44;100258.56;4992059;28;20777;-63
2023/01/11 04:27:56;;;;;;;4.43;1.40;;;;;;;18.95;56.84;100247.88;5010761;28;20559;-63
2023/01/11 04:30:21;;;;;;;5.03;1.43;;;;;;;18.91;56.82;100244.97;5011513;28;20222;-63
2023/01/11 04:32:47;;;;;;;3.80;1.10;;;;;;;18.94;56.66;100255.66;5001145;28;20274;-64
2023/01/11 04:35:12;;;;;;;3.77;1.40;;;;;;;18.94;56.66;100251.97;4991565;28;20178;-63
2023/01/11 04:37:38;;;;;;;4.00;1.37;;;;;;;18.95;56.68;100250.75;4991367;28;20210;-63
2023/01/11 04:40:04;;;;;;;6.47;1.40;;;;;;;18.95;56.80;100250.75;4991480;28;20219;-63
2023/01/11 04:42:29;;;;;;;4.00;1.07;;;;;;;18.94;56.57;100243.38;4993859;28;20196;-63
2023/01/11 04:44:54;;;;;;;3.37;1.17;;;;;;;18.93;56.69;100256.03;4999770;28;20591;-62
2023/01/11 04:47:21;;;;;;;8.00;1.80;;;;;;;18.95;56.75;100254.44;5094193;28;20665;-63
2023/01/11 04:49:46;;;;;;;4.87;1.63;;;;;;;18.91;56.72;100258.47;5109837;28;20234;-63
2023/01/11 04:52:12;;;;;;;3.50;1.37;;;;;;;18.92;56.81;100260.91;5114270;28;20491;-63
2023/01/11 04:54:38;;;;;;;4.03;1.30;;;;;;;18.92;57.21;100249.47;5096177;28;20189;-63
2023/01/11 04:57:03;;;;;;;4.13;1.50;;;;;;;18.95;56.87;100247.88;5095946;28;20942;-63
2023/01/11 04:59:29;;;;;;;6.27;1.40;;;;;;;18.92;56.71;100243.75;5096149;28;20194;-63
2023/01/11 05:01:54;;;;;;;4.80;1.20;;;;;;;18.92;57.19;100240.91;5093628;28;20163;-63
2023/01/11 05:04:20;;;;;;;5.80;1.63;;;;;;;18.90;56.89;100231.03;5093070;28;20723;-64
2023/01/11 05:06:45;;;;;;;4.80;1.50;;;;;;;18.91;56.83;100229.88;5095491;28;20239;-63
2023/01/11 05:09:14;;;;;;;3.67;1.37;;;;;;;18.91;56.65;100218.41;5093061;28;20791;-63
2023/01/11 05:11:40;;;;;;;5.50;1.27;;;;;;;18.91;56.92;100221.28;5087972;28;20174;-63
2023/01/11 05:14:05;;;;;;;5.77;1.23;;;;;;;18.90;56.89;100223.31;5092717;28;20477;-63
2023/01/11 05:16:31;;;;;;;2.87;1.30;;;;;;;18.92;56.84;100218.00;5106686;28;20185;-63
2023/01/11 05:18:57;;;;;;;2.73;1.17;;;;;;;18.92;56.70;100209.44;5090428;28;20183;-63
2023/01/11 05:21:31;;;;;;;5.23;1.30;;;;;;;18.88;56.85;100202.84;5099911;28;20234;-63
2023/01/11 05:23:57;;;;;;;2.93;1.30;;;;;;;18.91;56.76;100195.53;5092379;28;20425;-63
2023/01/11 05:26:30;;;;;;;3.60;1.20;;;;;;;18.93;56.90;100207.41;5095370;28;20435;-63
2023/01/11 05:28:58;;;;;;;4.50;1.20;;;;;;;18.91;56.78;100210.66;5093264;28;20504;-63
2023/01/11 05:31:23;;;;;;;3.20;1.30;;;;;;;18.91;56.79;100210.66;5075595;28;20450;-63
2023/01/11 05:33:49;;;;;;;4.00;1.33;;;;;;;18.94;56.66;100206.19;5111453;28;20864;-63
2023/01/11 05:36:16;;;;;;;4.20;1.40;;;;;;;18.90;56.81;100199.59;5113866;28;20158;-63
2023/01/11 05:38:41;;;;;;;4.83;1.87;;;;;;;18.90;56.53;100197.56;5098409;28;20669;-63
2023/01/11 05:41:08;;;;;;;4.23;1.00;;;;;;;18.93;56.81;100193.94;5093185;28;20404;-63
2023/01/11 05:45:27;;;;;;;2.70;1.23;;;;;;;18.92;56.89;100203.72;5101726;28;20269;-63
2023/01/11 05:46:19;;;;;;;3.43;1.30;;;;;;;18.91;56.90;100207.78;5111883;28;20473;-63
2023/01/11 05:48:45;;;;;;;2.40;1.20;;;;;;;18.95;56.80;100207.84;5107816;28;20471;-63
2023/01/11 05:51:10;;;;;;;4.83;1.60;;;;;;;18.93;56.93;100202.53;5112049;28;20775;-63
2023/01/11 05:53:36;;;;;;;4.67;1.40;;;;;;;18.96;56.91;100207.44;5102665;28;20593;-63
2023/01/11 05:56:01;;;;;;;4.73;1.23;;;;;;;18.91;56.74;100202.06;5093266;28;20185;-63
2023/01/11 05:58:27;;;;;;;4.03;1.40;;;;;;;18.93;56.80;100202.53;5091389;28;20191;-63
2023/01/11 06:00:53;;;;;;;2.83;1.20;;;;;;;18.90;56.96;100205.31;5094652;28;20197;-63
2023/01/11 06:03:19;;;;;;;3.13;1.30;;;;;;;18.88;57.04;100202.84;5087721;28;20179;-63
2023/01/11 06:05:45;;;;;;;2.57;1.10;;;;;;;18.92;56.97;100197.19;5077407;28;20443;-63
2023/01/11 06:08:10;;;;;;;5.83;1.40;;;;;;;18.93;56.82;100198.81;5077936;28;20183;-62
2023/01/11 06:10:36;;;;;;;5.20;1.40;;;;;;;18.91;56.85;100192.69;5072124;28;20233;-62
2023/01/11 06:15:45;;;;;;;4.63;1.30;;;;;;;18.92;56.97;100192.25;5103221;28;20172;-63
2023/01/11 06:18:10;;;;;;;4.27;1.50;;;;;;;18.91;57.17;100198.41;5107608;28;20822;-63
2023/01/11 06:20:36;;;;;;;3.07;1.10;;;;;;;18.90;56.83;100188.97;5112629;28;20170;-63
2023/01/11 06:23:01;;;;;;;2.80;1.20;;;;;;;18.91;56.78;100187.75;5108035;28;20618;-63
2023/01/11 06:25:29;;;;;;;3.00;1.10;;;;;;;18.94;56.66;100189.84;5107531;28;20181;-63
2023/01/11 06:27:54;;;;;;;3.73;1.00;;;;;;;18.93;56.78;100188.22;5111922;28;20188;-63
2023/01/11 06:30:20;;;;;;;4.57;1.83;;;;;;;18.93;57.00;100187.38;5104106;28;20797;-64
2023/01/11 06:32:45;;;;;;;4.90;1.23;;;;;;;18.91;56.88;100182.03;5092072;28;20193;-63
2023/01/11 06:35:11;;;;;;;3.73;1.37;;;;;;;18.90;56.84;100174.69;5091832;28;20166;-63
2023/01/11 06:37:36;;;;;;;2.10;0.90;;;;;;;18.93;57.07;100171.06;5094130;28;20205;-62
2023/01/11 06:40:02;;;;;;;5.23;1.00;;;;;;;18.91;56.96;100166.94;5091482;28;20163;-63
2023/01/11 06:42:27;;;;;;;2.83;1.00;;;;;;;18.90;56.90;100159.53;5093751;28;20182;-63
2023/01/11 06:44:53;;;;;;;5.13;1.20;;;;;;;18.93;57.03;100150.19;5091673;28;20177;-63
2023/01/11 06:47:18;;;;;;;2.33;1.10;;;;;;;18.96;56.79;100153.09;5091756;28;20162;-63
2023/01/11 06:49:43;;;;;;;3.43;1.33;;;;;;;18.97;56.67;100153.94;5093912;28;20182;-63
2023/01/11 06:52:09;;;;;;;3.33;1.53;;;;;;;18.93;56.74;100156.75;5091819;28;20162;-63
2023/01/11 06:54:34;;;;;;;3.30;0.97;;;;;;;18.92;56.95;100154.28;5093745;28;20174;-63
2023/01/11 06:57:00;;;;;;;4.33;1.10;;;;;;;18.95;56.78;100145.72;5091554;28;20202;-63
2023/01/11 06:59:25;;;;;;;3.23;1.00;;;;;;;18.91;56.84;100147.72;5092066;28;20186;-63
2023/01/11 07:01:51;;;;;;;2.63;1.10;;;;;;;18.90;56.96;100143.22;5093227;28;20630;-63
2023/01/11 07:04:17;;;;;;;2.43;1.20;;;;;;;18.91;57.00;100141.19;5078843;28;20195;-63
2023/01/11 07:06:43;;;;;;;1.93;0.90;;;;;;;18.90;57.01;100140.34;5086751;28;20181;-62
2023/01/11 07:09:08;;;;;;;3.03;1.10;;;;;;;18.91;56.90;100142.00;5104006;28;20435;-64
2023/01/11 07:11:37;;;;;;;2.70;1.10;;;;;;;18.93;57.16;100127.31;5111920;28;20154;-63
2023/01/11 07:14:06;;;;;;;2.57;0.93;;;;;;;18.93;56.80;100133.88;5101079;28;20645;-63
2023/01/11 07:16:31;;;;;;;4.60;1.30;;;;;;;18.89;57.65;100110.09;5091408;28;20416;-63
2023/01/11 07:18:56;;;;;;;2.73;1.20;;;;;;;18.93;56.91;100125.28;5091445;28;20828;-64
2023/01/11 07:21:22;;;;;;;3.40;1.43;;;;;;;18.91;57.03;100121.97;5097865;28;20641;-63
2023/01/11 07:23:47;;;;;;;2.70;1.00;;;;;;;18.97;57.21;100113.88;5100840;28;20182;-63
2023/01/11 07:26:15;;;;;;;2.63;1.17;;;;;;;18.95;56.79;100122.84;5101366;28;20193;-63
2023/01/11 07:28:41;;;;;;;2.53;1.27;;;;;;;18.93;56.89;100124.44;5112862;28;20146;-63
2023/01/11 07:31:07;;;;;;;3.10;1.03;;;;;;;18.92;56.72;100123.59;5115192;28;20709;-63
2023/01/11 07:33:32;;;;;;;2.47;1.00;;;;;;;18.96;56.86;100117.97;5110874;28;20464;-63
2023/01/11 07:35:59;;;;;;;2.43;0.70;;;;;;;18.91;56.91;100121.16;5095475;28;20227;-63
2023/01/11 07:38:25;;;;;;;2.30;1.03;;;;;;;18.92;57.02;100117.88;5102426;28;20193;-63
2023/01/11 07:40:50;;;;;;;4.03;0.90;;;;;;;18.92;56.78;100112.16;5115539;28;20443;-63
2023/01/11 07:43:21;;;;;;;3.23;1.30;;;;;;;18.93;56.33;100113.00;5113916;28;20169;-62
2023/01/11 07:45:48;;;;;;;4.20;1.60;;;;;;;18.94;56.96;100109.75;5111371;28;20264;-63
2023/01/11 07:48:19;;;;;;;2.23;0.90;;;;;;;18.93;56.97;100130.16;5097563;28;20424;-63
2023/01/11 07:50:46;;;;;;;3.47;1.20;;;;;;;18.95;57.09;100116.28;5111497;28;20836;-63
2023/01/11 07:53:11;;;;;;;2.30;0.80;;;;;;;18.96;56.77;100115.91;5109432;28;20420;-63
2023/01/11 07:55:38;;;;;;;2.33;0.80;;;;;;;18.95;56.98;100122.84;5096627;28;20629;-63
2023/01/11 07:58:04;;;;;;;4.13;1.20;;;;;;;18.92;56.67;100112.16;5095156;28;20208;-63
2023/01/11 08:00:30;;;;;;;2.27;1.03;;;;;;;18.93;57.02;100118.72;5094348;28;20420;-63
2023/01/11 08:02:55;;;;;;;2.80;1.03;;;;;;;18.95;56.96;100111.41;5095410;28;20952;-63
2023/01/11 08:05:21;;;;;;;1.73;0.80;;;;;;;18.95;56.79;100119.16;5074567;28;20194;-63
2023/01/11 08:07:46;;;;;;;1.90;0.90;;;;;;;18.94;56.88;100124.06;5074337;28;20209;-62
2023/01/11 08:10:12;;;;;;;2.50;1.07;;;;;;;18.98;56.67;100126.97;5110062;28;20182;-63
2023/01/11 08:15:26;;;;;;;4.47;1.33;;;;;;;18.94;57.05;100126.94;5096978;28;20327;-63
2023/01/11 08:17:51;;;;;;;6.03;1.10;;;;;;;18.94;56.77;100132.66;5094573;28;20456;-63
2023/01/11 08:20:17;;;;;;;2.40;0.90;;;;;;;18.95;56.69;100128.56;5096374;28;20177;-63
2023/01/11 08:22:42;;;;;;;2.03;1.07;;;;;;;18.95;56.90;100130.59;5107166;28;21019;-63
2023/01/11 08:25:08;;;;;;;2.20;1.00;;;;;;;18.98;56.87;100138.41;5098912;28;20207;-63
2023/01/11 08:27:33;;;;;;;3.00;1.33;;;;;;;18.93;56.78;100135.88;5093310;28;20542;-63
2023/01/11 08:29:59;;;;;;;4.70;1.20;;;;;;;18.95;56.83;100134.28;5096390;28;20182;-63
2023/01/11 08:32:27;;;;;;;4.47;1.30;;;;;;;18.96;56.54;100130.22;5093844;28;20174;-63
2023/01/11 08:34:52;;;;;;;2.17;0.87;;;;;;;18.95;57.14;100137.16;5098317;28;20178;-63
2023/01/11 08:37:18;;;;;;;2.80;1.07;;;;;;;18.97;56.98;100131.84;5095795;28;20757;-63
2023/01/11 08:39:43;;;;;;;2.50;1.13;;;;;;;18.95;56.84;100137.16;5093178;28;20178;-63
2023/01/11 08:42:09;;;;;;;2.73;1.20;;;;;;;18.95;56.94;100134.28;5089606;28;20518;-62
2023/01/11 08:44:34;;;;;;;2.33;0.90;;;;;;;18.98;56.85;100149.84;5093551;28;20223;-63
2023/01/11 08:47:00;;;;;;;4.37;1.20;;;;;;;18.96;56.80;100146.56;5093449;28;20221;-63
2023/01/11 08:49:26;;;;;;;2.70;0.87;;;;;;;18.94;57.21;100132.66;5093205;28;20188;-63
2023/01/11 08:51:51;;;;;;;2.30;1.10;;;;;;;18.97;56.74;100156.78;5090538;28;20409;-63
2023/01/11 08:54:16;;;;;;;2.07;0.83;;;;;;;18.94;57.02;100135.50;5092710;28;20653;-63
2023/01/11 08:56:42;;;;;;;3.27;0.80;;;;;;;18.96;56.78;100152.28;5091052;28;20185;-62
2023/01/11 08:59:08;;;;;;;3.60;1.20;;;;;;;18.94;57.04;100143.25;5073503;28;20179;-63
2023/01/11 09:01:33;;;;;;;2.07;0.93;;;;;;;18.98;56.90;100155.56;5100143;28;20205;-62
2023/01/11 09:03:59;;;;;;;3.23;1.03;;;;;;;18.94;56.93;100144.09;5092512;28;20179;-62
2023/01/11 09:06:24;;;;;;;2.87;1.07;;;;;;;18.97;56.81;100154.75;5091400;28;20171;-63
2023/01/11 09:08:50;;;;;;;4.27;0.90;;;;;;;18.98;56.79;100144.13;5103587;28;20173;-63
2023/01/11 09:13:59;;;;;;;3.10;1.13;;;;;;;18.94;57.17;100154.69;5082883;28;20272;-63
2023/01/11 09:16:25;;;;;;;4.90;1.10;;;;;;;18.95;57.02;100154.31;5093274;28;20412;-63
2023/01/11 09:18:50;;;;;;;2.70;1.10;;;;;;;18.96;57.19;100155.16;5093244;28;20191;-63
2023/01/11 09:21:16;;;;;;;2.60;1.00;;;;;;;18.97;56.78;100148.22;5095255;28;20223;-64
2023/01/11 09:23:43;;;;;;;2.73;1.00;;;;;;;18.93;57.01;100153.88;5093471;28;20210;-62
2023/01/11 09:26:10;;;;;;;1.90;0.90;;;;;;;18.96;56.82;100166.59;5099155;28;20245;-63
2023/01/11 09:28:35;;;;;;;3.00;1.07;;;;;;;18.93;56.97;100159.63;5113508;28;20828;-63
2023/01/11 09:31:01;;;;;;;1.70;0.83;;;;;;;18.91;57.08;100159.16;5113160;28;20416;-63
2023/01/11 09:33:26;;;;;;;2.57;0.90;;;;;;;18.92;56.89;100169.38;5096745;28;20240;-63
2023/01/11 09:35:53;;;;;;;3.57;1.17;;;;;;;18.92;57.07;100160.78;5093474;28;20183;-63
2023/01/11 09:38:18;;;;;;;1.70;0.70;;;;;;;18.95;56.77;100160.03;5086572;28;20222;-63
2023/01/11 09:40:59;;;;;;;3.90;1.80;;;;;;;18.94;56.89;100163.28;5074325;28;20424;-62
2023/01/11 09:43:26;;;;;;;2.37;1.10;;;;;;;18.94;56.74;100160.41;5074921;28;20178;-63
2023/01/11 09:45:54;;;;;;;1.93;1.20;;;;;;;18.95;56.73;100165.75;5074180;28;20466;-63
2023/01/11 09:48:31;;;;;;;2.03;0.97;;;;;;;18.95;56.87;100168.63;5074202;28;20423;-61
2023/01/11 09:50:57;;;;;;;2.00;0.80;;;;;;;18.93;56.93;100167.34;5075744;28;20494;-63
2023/01/11 09:53:37;;;;;;;4.20;1.20;;;;;;;18.93;57.08;100167.34;5073000;28;20416;-63
2023/01/11 09:56:04;;;;;;;3.00;1.10;;;;;;;18.94;57.04;100163.28;5092197;28;20776;-63
2023/01/11 09:59:06;;;;;;;4.80;1.03;;;;;;;18.96;56.82;100164.53;5101235;28;21101;-64
2023/01/11 10:01:46;;;;;;;2.10;0.70;;;;;;;18.95;57.16;100167.78;5089841;28;20938;-63
2023/01/11 10:04:40;;;;;;;2.53;1.00;;;;;;;18.95;56.80;100171.47;5073469;28;20783;-63
2023/01/11 10:07:13;;;;;;;2.57;1.13;;;;;;;18.93;57.05;100173.91;5072028;28;20405;-63
2023/01/11 10:09:51;;;;;;;4.93;1.30;;;;;;;18.94;56.95;100169.00;5054290;28;20530;-63
2023/01/11 10:12:43;;;;;;;2.00;0.87;;;;;;;18.82;55.18;100169.25;5089249;28;20428;-61
2023/01/11 10:15:19;;;;;;;3.43;0.90;;;;;;;18.49;55.31;100163.41;5089097;28;20451;-64
2023/01/11 10:18:16;;;;;;;1.97;0.70;;;;;;;18.34;55.94;100158.66;5057080;28;20482;-63
2023/01/11 10:20:45;;;;;;;4.00;1.10;;;;;;;18.46;56.53;100162.13;5089963;28;20556;-65
2023/01/11 10:23:20;;;;;;;3.23;1.23;;;;;;;18.70;57.01;100164.56;5069708;28;20424;-63
2023/01/11 10:25:50;;;;;;;4.60;1.40;;;;;;;18.88;56.95;100164.81;5081988;28;20431;-63
2023/01/11 10:28:34;;;;;;;3.13;1.10;;;;;;;19.05;57.21;100162.22;5072896;28;20420;-63
2023/01/11 10:31:10;;;;;;;4.97;1.37;;;;;;;19.08;57.21;100167.19;5106003;28;20950;-63
2023/01/11 10:42:00;;;;;;;1.70;0.77;;;;;;;19.18;57.49;100168.53;5011369;28;20432;-63
2023/01/11 10:45:03;;;;;;;4.17;1.10;;;;;;;19.20;56.80;100164.06;5070114;28;20423;-61
2023/01/11 10:47:34;;;;;;;2.70;1.00;;;;;;;19.26;57.88;100164.59;5073273;28;20843;-62
2023/01/11 10:50:14;;;;;;;3.20;1.10;;;;;;;19.24;58.03;100164.13;5089951;28;20420;-63
2023/01/11 10:52:50;;;;;;;3.70;1.07;;;;;;;19.22;58.54;100161.66;5087743;28;20485;-63
2023/01/11 10:55:38;;;;;;;3.10;1.40;;;;;;;19.29;58.33;100161.75;5071883;28;20463;-63
2023/01/11 10:58:27;;;;;;;5.63;1.00;;;;;;;19.30;58.83;100156.84;5074082;28;20539;-64
2023/01/11 11:01:07;;;;;;;3.73;1.33;;;;;;;19.34;58.99;100163.44;5071209;28;20428;-64
2023/01/11 11:03:56;;;;;;;2.83;0.90;;;;;;;19.34;59.08;100164.28;5088297;28;20443;-63
2023/01/11 11:06:40;;;;;;;1.70;0.70;;;;;;;19.32;58.99;100160.97;5063338;28;20434;-63
2023/01/11 11:09:26;;;;;;;2.93;0.80;;;;;;;19.34;58.46;100158.56;5074201;28;20840;-63
2023/01/11 11:12:00;;;;;;;3.10;0.80;;;;;;;19.58;59.12;100155.19;5087915;28;20435;-63
2023/01/11 11:14:34;;;;;;;2.10;0.83;;;;;;;19.77;58.97;100149.22;5043375;28;20424;-63
2023/01/11 11:17:26;;;;;;;35.27;1.90;;;;;;;19.90;59.80;100164.94;5069527;28;20440;-63
2023/01/11 11:19:52;;;;;;;2.50;0.90;;;;;;;19.90;60.57;100156.34;5072602;28;20469;-64
2023/01/11 11:22:18;;;;;;;5.40;1.30;;;;;;;19.90;61.93;100164.09;5088607;28;20436;-65
2023/01/11 11:24:49;;;;;;;3.93;1.20;;;;;;;19.89;62.61;100163.28;5087141;28;20193;-64
2023/01/11 11:27:43;;;;;;;7.90;1.60;;;;;;;19.97;62.56;100167.06;5069908;28;20393;-63
2023/01/11 11:30:10;;;;;;;8.37;1.80;;;;;;;20.10;62.61;100169.25;4999256;28;21003;-63
2023/01/11 11:32:37;;;;;;;3.50;1.30;;;;;;;20.35;62.21;100158.84;5099635;28;20459;-64
2023/01/11 11:35:02;;;;;;;4.50;1.50;;;;;;;20.34;62.22;100165.81;5103403;28;20427;-63
2023/01/11 11:37:35;;;;;;;6.60;1.83;;;;;;;20.19;62.32;100164.03;5091047;28;20452;-64
2023/01/11 11:40:00;;;;;;;6.53;2.00;;;;;;;20.00;63.52;100155.63;5075446;28;20178;-65
2023/01/11 11:42:26;;;;;;;3.57;2.03;;;;;;;19.95;63.65;100161.72;5054956;28;20419;-62
2023/01/11 11:45:15;;;;;;;3.73;1.40;;;;;;;19.92;64.01;100165.34;5088763;28;20572;-63
2023/01/11 11:47:42;;;;;;;5.00;1.20;;;;;;;19.87;63.58;100165.69;5079913;28;20183;-64
2023/01/11 11:50:24;;;;;;;4.40;1.50;;;;;;;19.81;63.70;100167.28;5069882;28;20421;-64
2023/01/11 11:52:53;;;;;;;4.00;1.30;;;;;;;19.85;63.45;100168.16;5072003;28;20577;-64
2023/01/11 11:55:21;;;;;;;6.23;1.60;;;;;;;19.78;63.25;100173.81;5089941;28;20444;-63
2023/01/11 11:57:46;;;;;;;4.17;1.30;;;;;;;19.78;63.50;100170.94;5054913;28;20558;-62
2023/01/11 12:00:26;;;;;;;8.10;2.10;;;;;;;19.77;62.98;100172.16;5088538;28;20443;-64
2023/01/11 12:03:12;;;;;;;2.73;1.30;;;;;;;19.88;62.87;100178.00;5069207;28;20175;-64
2023/01/11 12:05:37;;;;;;;7.30;1.10;;;;;;;19.83;62.94;100179.19;5071816;28;20461;-64
2023/01/11 12:08:03;;;;;;;3.33;1.30;;;;;;;19.89;61.92;100180.47;5056148;28;20462;-63